createdAt,value
2023-05-05T00:00:46.224Z,0.00
2023-05-05T00:01:46.221Z,0.00
2023-05-05T00:02:46.297Z,0.00
2023-05-05T00:03:46.284Z,0.00
2023-05-05T00:04:46.176Z,0.00
2023-05-05T00:05:46.161Z,0.00
2023-05-05T00:06:46.154Z,0.00
2023-05-05T00:07:46.138Z,0.00
2023-05-05T00:08:46.146Z,0.00
2023-05-05T00:09:46.117Z,0.00
2023-05-05T00:10:46.104Z,0.00
2023-05-05T00:11:46.097Z,0.00
2023-05-05T00:12:46.129Z,0.00
2023-05-05T00:13:46.073Z,0.00
2023-05-05T00:14:46.067Z,0.00
2023-05-05T00:15:46.069Z,0.00
2023-05-05T00:16:46.109Z,0.00
2023-05-05T00:17:46.071Z,0.00
2023-05-05T00:18:46.025Z,0.00
2023-05-05T00:19:46.008Z,0.00
2023-05-05T00:20:46.000Z,0.00
2023-05-05T00:21:45.993Z,0.00
2023-05-05T00:22:45.988Z,0.00
2023-05-05T00:23:45.959Z,0.00
2023-05-05T00:24:45.971Z,0.00
2023-05-05T00:25:45.965Z,0.00
2023-05-05T00:26:45.950Z,0.00
2023-05-05T00:27:45.924Z,0.00
2023-05-05T00:28:45.951Z,0.00
2023-05-05T00:29:45.902Z,0.00
2023-05-05T00:30:45.903Z,0.00
2023-05-05T00:31:45.914Z,0.00
2023-05-05T00:32:45.909Z,0.00
2023-05-05T00:33:45.875Z,0.00
2023-05-05T00:34:45.856Z,0.00
2023-05-05T00:35:45.842Z,0.00
2023-05-05T00:36:45.827Z,0.00
2023-05-05T00:37:45.821Z,0.00
2023-05-05T00:38:45.823Z,0.00
2023-05-05T00:39:45.809Z,0.00
2023-05-05T00:40:45.790Z,0.00
2023-05-05T00:41:45.789Z,0.00
2023-05-05T00:42:45.792Z,0.00
2023-05-05T00:43:45.758Z,0.00
2023-05-05T00:44:45.767Z,0.00
2023-05-05T00:45:45.735Z,0.00
2023-05-05T00:46:45.844Z,0.00
2023-05-05T00:47:45.739Z,0.00
2023-05-05T00:48:45.716Z,0.00
2023-05-05T00:49:45.682Z,0.00
2023-05-05T00:50:45.680Z,0.00
2023-05-05T00:51:45.678Z,0.00
2023-05-05T00:52:45.686Z,0.00
2023-05-05T00:53:45.659Z,0.00
2023-05-05T00:54:45.646Z,0.00
2023-05-05T00:55:45.636Z,0.00
2023-05-05T00:56:45.619Z,0.00
2023-05-05T00:57:45.669Z,0.00
2023-05-05T00:58:45.601Z,0.00
2023-05-05T00:59:45.582Z,0.00
2023-05-05T01:00:45.611Z,0.00
2023-05-05T01:01:45.582Z,0.00
2023-05-05T01:02:45.640Z,0.00
2023-05-05T01:03:45.673Z,0.00
2023-05-05T01:04:45.528Z,0.00
2023-05-05T01:05:45.514Z,0.00
2023-05-05T01:06:45.510Z,0.00
2023-05-05T01:07:45.494Z,0.00
2023-05-05T01:08:45.490Z,0.00
2023-05-05T01:09:45.467Z,0.00
2023-05-05T01:10:45.465Z,0.00
2023-05-05T01:11:45.471Z,0.00
2023-05-05T01:12:45.522Z,0.00
2023-05-05T01:13:45.430Z,0.00
2023-05-05T01:14:45.424Z,0.00
2023-05-05T01:15:45.406Z,0.00
2023-05-05T01:16:45.407Z,0.00
2023-05-05T01:17:45.440Z,0.00
2023-05-05T01:18:45.379Z,0.00
2023-05-05T01:19:45.370Z,0.00
2023-05-05T01:20:45.365Z,0.00
2023-05-05T01:21:45.347Z,0.00
2023-05-05T01:22:45.331Z,0.00
2023-05-05T01:23:45.338Z,0.00
2023-05-05T01:24:45.302Z,0.00
2023-05-05T01:25:45.299Z,0.00
2023-05-05T01:26:45.288Z,0.00
2023-05-05T01:27:45.306Z,0.00
2023-05-05T01:28:45.262Z,0.00
2023-05-05T01:29:45.260Z,0.00
2023-05-05T01:30:45.242Z,0.00
2023-05-05T01:31:45.306Z,0.00
2023-05-05T01:32:45.314Z,0.00
2023-05-05T01:33:45.213Z,0.00
2023-05-05T01:34:45.202Z,0.00
2023-05-05T01:35:45.203Z,0.00
2023-05-05T01:36:45.180Z,0.00
2023-05-05T01:37:45.168Z,0.00
2023-05-05T01:38:45.175Z,0.00
2023-05-05T01:39:45.147Z,0.00
2023-05-05T01:40:45.141Z,0.00
2023-05-05T01:41:45.143Z,0.00
2023-05-05T01:42:45.123Z,0.00
2023-05-05T01:43:45.103Z,0.00
2023-05-05T01:44:45.098Z,0.00
2023-05-05T01:45:45.119Z,0.00
2023-05-05T01:46:45.084Z,0.00
2023-05-05T01:47:45.092Z,0.00
2023-05-05T01:48:45.056Z,0.00
2023-05-05T01:49:45.046Z,0.00
2023-05-05T01:50:45.018Z,0.00
2023-05-05T01:51:45.014Z,0.00
2023-05-05T01:52:45.006Z,0.00
2023-05-05T01:53:44.993Z,0.00
2023-05-05T01:54:44.978Z,0.00
2023-05-05T01:55:44.980Z,0.00
2023-05-05T01:56:44.972Z,0.00
2023-05-05T01:57:44.956Z,0.00
2023-05-05T01:58:44.965Z,0.00
2023-05-05T01:59:44.931Z,0.00
2023-05-05T02:00:44.938Z,0.00
2023-05-05T02:01:44.994Z,0.00
2023-05-05T02:02:44.967Z,0.00
2023-05-05T02:03:44.893Z,0.00
2023-05-05T02:04:44.930Z,0.00
2023-05-05T02:05:44.883Z,0.00
2023-05-05T02:06:44.860Z,0.00
2023-05-05T02:07:44.851Z,0.00
2023-05-05T02:08:44.847Z,0.00
2023-05-05T02:09:44.832Z,0.00
2023-05-05T02:10:44.853Z,0.00
2023-05-05T02:11:44.815Z,0.00
2023-05-05T02:12:44.819Z,0.00
2023-05-05T02:13:44.822Z,0.00
2023-05-05T02:14:44.845Z,0.00
2023-05-05T02:15:44.794Z,0.00
2023-05-05T02:16:44.753Z,0.00
2023-05-05T02:17:44.818Z,0.00
2023-05-05T02:18:44.725Z,0.00
2023-05-05T02:19:44.722Z,0.00
2023-05-05T02:20:44.718Z,0.00
2023-05-05T02:21:44.707Z,0.00
2023-05-05T02:22:44.692Z,0.00
2023-05-05T02:23:44.691Z,0.00
2023-05-05T02:24:44.670Z,0.00
2023-05-05T02:25:44.656Z,0.00
2023-05-05T02:26:44.645Z,0.00
2023-05-05T02:27:44.645Z,0.00
2023-05-05T02:28:44.617Z,0.00
2023-05-05T02:29:44.605Z,0.00
2023-05-05T02:30:44.624Z,0.00
2023-05-05T02:31:44.741Z,0.00
2023-05-05T02:32:44.674Z,0.00
2023-05-05T02:33:44.629Z,0.00
2023-05-05T02:34:44.586Z,0.00
2023-05-05T02:35:44.557Z,0.00
2023-05-05T02:36:44.563Z,0.00
2023-05-05T02:37:44.536Z,0.00
2023-05-05T02:38:44.528Z,0.00
2023-05-05T02:39:44.526Z,0.00
2023-05-05T02:40:44.496Z,0.00
2023-05-05T02:41:44.484Z,0.00
2023-05-05T02:42:44.558Z,0.00
2023-05-05T02:43:44.526Z,0.00
2023-05-05T02:44:44.473Z,0.00
2023-05-05T02:45:44.448Z,0.00
2023-05-05T02:46:44.479Z,0.00
2023-05-05T02:47:44.469Z,0.00
2023-05-05T02:48:44.413Z,0.00
2023-05-05T02:49:44.395Z,0.00
2023-05-05T02:50:44.400Z,0.00
2023-05-05T02:51:44.364Z,0.00
2023-05-05T02:52:44.377Z,0.00
2023-05-05T02:53:44.347Z,0.00
2023-05-05T02:54:44.354Z,0.00
2023-05-05T02:55:44.320Z,0.00
2023-05-05T02:56:44.330Z,0.00
2023-05-05T02:57:44.304Z,0.00
2023-05-05T02:58:44.300Z,0.00
2023-05-05T02:59:44.294Z,0.00
2023-05-05T03:00:44.279Z,0.00
2023-05-05T03:01:44.315Z,0.00
2023-05-05T03:02:44.314Z,0.00
2023-05-05T03:03:44.392Z,0.00
2023-05-05T03:04:44.237Z,0.00
2023-05-05T03:05:44.225Z,0.00
2023-05-05T03:06:44.219Z,0.00
2023-05-05T03:07:44.217Z,0.00
2023-05-05T03:08:44.206Z,0.00
2023-05-05T03:09:44.166Z,0.00
2023-05-05T03:10:44.176Z,0.00
2023-05-05T03:11:44.151Z,0.00
2023-05-05T03:12:44.174Z,0.00
2023-05-05T03:13:44.134Z,0.00
2023-05-05T03:14:44.148Z,0.00
2023-05-05T03:15:44.105Z,0.00
2023-05-05T03:16:44.283Z,0.00
2023-05-05T03:17:44.156Z,0.00
2023-05-05T03:18:44.094Z,0.00
2023-05-05T03:19:44.069Z,0.00
2023-05-05T03:20:44.080Z,0.00
2023-05-05T03:21:44.037Z,0.00
2023-05-05T03:22:44.060Z,0.00
2023-05-05T03:23:44.021Z,0.00
2023-05-05T03:24:44.017Z,0.00
2023-05-05T03:25:43.999Z,0.00
2023-05-05T03:26:43.994Z,0.00
2023-05-05T03:27:43.990Z,0.00
2023-05-05T03:28:43.999Z,0.00
2023-05-05T03:29:43.978Z,0.00
2023-05-05T03:30:44.006Z,0.00
2023-05-05T03:31:44.017Z,0.00
2023-05-05T03:32:43.951Z,0.00
2023-05-05T03:33:43.911Z,0.00
2023-05-05T03:34:43.950Z,0.00
2023-05-05T03:35:43.894Z,0.00
2023-05-05T03:36:43.875Z,0.00
2023-05-05T03:37:43.868Z,0.00
2023-05-05T03:38:43.873Z,0.00
2023-05-05T03:39:43.853Z,0.00
2023-05-05T03:40:44.793Z,0.00
2023-05-05T03:41:43.834Z,0.00
2023-05-05T03:42:43.822Z,0.00
2023-05-05T03:43:43.797Z,0.00
2023-05-05T03:44:43.830Z,0.00
2023-05-05T03:45:43.809Z,0.00
2023-05-05T03:46:43.778Z,0.00
2023-05-05T03:47:43.779Z,0.00
2023-05-05T03:48:43.775Z,0.00
2023-05-05T03:49:43.747Z,0.00
2023-05-05T03:50:43.735Z,0.00
2023-05-05T03:51:43.726Z,0.00
2023-05-05T03:52:43.711Z,0.00
2023-05-05T03:53:43.690Z,0.00
2023-05-05T03:54:43.704Z,0.00
2023-05-05T03:55:43.700Z,0.00
2023-05-05T03:56:43.655Z,0.00
2023-05-05T03:57:43.667Z,0.00
2023-05-05T03:58:43.648Z,0.00
2023-05-05T03:59:43.634Z,0.00
2023-05-05T04:00:43.630Z,0.00
2023-05-05T04:01:43.604Z,5.62
2023-05-05T04:02:43.972Z,5.62
2023-05-05T04:03:43.700Z,5.62
2023-05-05T04:04:43.579Z,5.62
2023-05-05T04:05:43.599Z,5.62
2023-05-05T04:06:43.569Z,5.62
2023-05-05T04:07:43.553Z,5.62
2023-05-05T04:08:43.556Z,5.62
2023-05-05T04:09:43.529Z,5.62
2023-05-05T04:10:43.523Z,5.62
2023-05-05T04:11:43.519Z,5.62
2023-05-05T04:12:43.554Z,5.62
2023-05-05T04:13:43.486Z,11.25
2023-05-05T04:14:43.485Z,11.25
2023-05-05T04:15:43.494Z,11.25
2023-05-05T04:16:43.457Z,11.25
2023-05-05T04:17:43.447Z,11.25
2023-05-05T04:18:43.445Z,11.25
2023-05-05T04:19:43.433Z,11.25
2023-05-05T04:20:43.411Z,11.25
2023-05-05T04:21:43.421Z,11.25
2023-05-05T04:22:43.391Z,16.88
2023-05-05T04:23:43.385Z,16.88
2023-05-05T04:24:43.390Z,16.88
2023-05-05T04:25:43.399Z,16.88
2023-05-05T04:26:43.357Z,16.88
2023-05-05T04:27:43.348Z,16.88
2023-05-05T04:28:43.330Z,16.88
2023-05-05T04:29:43.336Z,16.88
2023-05-05T04:30:43.314Z,16.88
2023-05-05T04:31:43.684Z,22.50
2023-05-05T04:32:43.364Z,22.50
2023-05-05T04:33:43.321Z,22.50
2023-05-05T04:34:43.280Z,22.50
2023-05-05T04:35:43.245Z,22.50
2023-05-05T04:36:43.261Z,22.50
2023-05-05T04:37:43.254Z,22.50
2023-05-05T04:38:43.708Z,28.12
2023-05-05T04:39:43.207Z,28.12
2023-05-05T04:40:43.205Z,33.75
2023-05-05T04:41:43.193Z,33.75
2023-05-05T04:42:43.175Z,33.75
2023-05-05T04:43:43.180Z,33.75
2023-05-05T04:44:43.198Z,33.75
2023-05-05T04:45:43.143Z,33.75
2023-05-05T04:46:43.146Z,33.75
2023-05-05T04:47:43.208Z,33.75
2023-05-05T04:48:43.120Z,33.75
2023-05-05T04:49:43.105Z,33.75
2023-05-05T04:50:43.127Z,33.75
2023-05-05T04:51:43.103Z,33.75
2023-05-05T04:52:43.070Z,33.75
2023-05-05T04:53:43.073Z,33.75
2023-05-05T04:54:44.014Z,39.38
2023-05-05T04:55:43.107Z,39.38
2023-05-05T04:56:43.033Z,45.00
2023-05-05T04:57:43.024Z,45.00
2023-05-05T04:58:43.096Z,50.62
2023-05-05T04:59:42.988Z,56.25
2023-05-05T05:00:43.966Z,61.88
2023-05-05T05:01:42.981Z,67.50
2023-05-05T05:02:43.088Z,73.12
2023-05-05T05:03:43.036Z,73.12
2023-05-05T05:04:42.932Z,73.12
2023-05-05T05:05:42.921Z,67.50
2023-05-05T05:06:42.909Z,67.50
2023-05-05T05:07:42.896Z,61.88
2023-05-05T05:08:42.919Z,61.88
2023-05-05T05:09:42.886Z,61.88
2023-05-05T05:10:43.881Z,67.50
2023-05-05T05:11:42.869Z,67.50
2023-05-05T05:12:44.312Z,67.50
2023-05-05T05:13:42.855Z,67.50
2023-05-05T05:14:43.803Z,67.50
2023-05-05T05:15:42.844Z,73.12
2023-05-05T05:16:44.187Z,78.75
2023-05-05T05:17:42.890Z,84.38
2023-05-05T05:18:43.773Z,84.38
2023-05-05T05:19:42.835Z,84.38
2023-05-05T05:20:43.495Z,84.38
2023-05-05T05:21:42.781Z,84.38
2023-05-05T05:22:43.720Z,84.38
2023-05-05T05:23:42.781Z,84.38
2023-05-05T05:24:43.460Z,78.75
2023-05-05T05:25:42.721Z,78.75
2023-05-05T05:26:43.438Z,78.75
2023-05-05T05:27:42.719Z,73.12
2023-05-05T05:28:43.410Z,73.12
2023-05-05T05:29:42.978Z,67.50
2023-05-05T05:30:43.386Z,67.50
2023-05-05T05:31:42.720Z,67.50
2023-05-05T05:32:43.373Z,67.50
2023-05-05T05:33:42.650Z,67.50
2023-05-05T05:34:42.923Z,73.12
2023-05-05T05:35:42.611Z,73.12
2023-05-05T05:36:43.853Z,73.12
2023-05-05T05:37:42.618Z,73.12
2023-05-05T05:38:43.291Z,73.12
2023-05-05T05:39:43.710Z,73.12
2023-05-05T05:40:42.568Z,73.12
2023-05-05T05:41:42.539Z,73.12
2023-05-05T05:42:42.584Z,73.12
2023-05-05T05:43:42.566Z,78.75
2023-05-05T05:44:42.981Z,78.75
2023-05-05T05:45:42.523Z,78.75
2023-05-05T05:46:43.320Z,78.75
2023-05-05T05:47:42.528Z,84.38
2023-05-05T05:48:43.003Z,84.38
2023-05-05T05:49:42.442Z,90.00
2023-05-05T05:50:42.532Z,90.00
2023-05-05T05:51:42.431Z,90.00
2023-05-05T05:52:42.443Z,95.62
2023-05-05T05:53:42.410Z,95.62
2023-05-05T05:54:42.394Z,101.25
2023-05-05T05:55:42.378Z,101.25
2023-05-05T05:56:42.367Z,106.88
2023-05-05T05:57:42.356Z,112.50
2023-05-05T05:58:42.444Z,112.50
2023-05-05T05:59:42.321Z,118.12
2023-05-05T06:00:42.302Z,123.75
2023-05-05T06:01:42.326Z,129.38
2023-05-05T06:02:42.367Z,140.62
2023-05-05T06:03:42.346Z,146.25
2023-05-05T06:04:42.326Z,146.25
2023-05-05T06:05:43.255Z,135.00
2023-05-05T06:06:42.266Z,123.75
2023-05-05T06:07:42.393Z,123.75
2023-05-05T06:08:42.285Z,123.75
2023-05-05T06:09:43.253Z,123.75
2023-05-05T06:10:42.372Z,112.50
2023-05-05T06:11:42.286Z,106.88
2023-05-05T06:12:42.203Z,101.25
2023-05-05T06:13:42.274Z,106.88
2023-05-05T06:14:42.193Z,106.88
2023-05-05T06:15:42.344Z,118.12
2023-05-05T06:16:42.158Z,129.38
2023-05-05T06:17:42.180Z,146.25
2023-05-05T06:18:42.142Z,157.50
2023-05-05T06:19:42.669Z,168.75
2023-05-05T06:20:42.104Z,185.62
2023-05-05T06:21:42.324Z,196.88
2023-05-05T06:22:42.101Z,208.12
2023-05-05T06:23:42.098Z,230.62
2023-05-05T06:24:42.050Z,236.25
2023-05-05T06:25:42.048Z,241.88
2023-05-05T06:26:42.026Z,241.88
2023-05-05T06:27:42.018Z,241.88
2023-05-05T06:28:42.012Z,236.25
2023-05-05T06:29:42.016Z,236.25
2023-05-05T06:30:41.981Z,230.62
2023-05-05T06:31:42.093Z,230.62
2023-05-05T06:32:42.008Z,225.00
2023-05-05T06:33:41.975Z,219.38
2023-05-05T06:34:41.960Z,213.75
2023-05-05T06:35:41.954Z,213.75
2023-05-05T06:36:41.944Z,202.50
2023-05-05T06:37:41.920Z,202.50
2023-05-05T06:38:41.930Z,196.88
2023-05-05T06:39:41.907Z,191.25
2023-05-05T06:40:41.882Z,180.00
2023-05-05T06:41:41.880Z,174.38
2023-05-05T06:42:41.866Z,163.12
2023-05-05T06:43:41.852Z,157.50
2023-05-05T06:44:41.936Z,157.50
2023-05-05T06:45:43.663Z,157.50
2023-05-05T06:46:41.866Z,151.88
2023-05-05T06:47:41.823Z,157.50
2023-05-05T06:48:41.788Z,163.12
2023-05-05T06:49:41.794Z,168.75
2023-05-05T06:50:41.786Z,168.75
2023-05-05T06:51:42.876Z,168.75
2023-05-05T06:52:41.751Z,163.12
2023-05-05T06:53:41.747Z,157.50
2023-05-05T06:54:41.729Z,157.50
2023-05-05T06:55:41.737Z,163.12
2023-05-05T06:56:41.729Z,174.38
2023-05-05T06:57:41.697Z,180.00
2023-05-05T06:58:41.800Z,174.38
2023-05-05T06:59:41.689Z,174.38
2023-05-05T07:00:41.674Z,174.38
2023-05-05T07:01:41.661Z,168.75
2023-05-05T07:02:41.654Z,168.75
2023-05-05T07:03:41.841Z,163.12
2023-05-05T07:04:41.618Z,157.50
2023-05-05T07:05:41.619Z,157.50
2023-05-05T07:06:41.606Z,157.50
2023-05-05T07:07:41.580Z,151.88
2023-05-05T07:08:41.589Z,151.88
2023-05-05T07:09:41.573Z,146.25
2023-05-05T07:10:41.558Z,151.88
2023-05-05T07:11:41.562Z,151.88
2023-05-05T07:12:41.555Z,151.88
2023-05-05T07:13:41.522Z,157.50
2023-05-05T07:14:41.576Z,163.12
2023-05-05T07:15:41.527Z,180.00
2023-05-05T07:16:41.571Z,191.25
2023-05-05T07:17:41.525Z,202.50
2023-05-05T07:18:42.763Z,196.88
2023-05-05T07:19:41.515Z,191.25
2023-05-05T07:20:42.504Z,185.62
2023-05-05T07:21:41.506Z,168.75
2023-05-05T07:22:42.475Z,157.50
2023-05-05T07:23:41.452Z,151.88
2023-05-05T07:24:42.420Z,146.25
2023-05-05T07:25:41.449Z,146.25
2023-05-05T07:26:41.525Z,146.25
2023-05-05T07:27:41.379Z,157.50
2023-05-05T07:28:42.108Z,168.75
2023-05-05T07:29:41.369Z,168.75
2023-05-05T07:30:42.145Z,163.12
2023-05-05T07:31:41.424Z,151.88
2023-05-05T07:32:41.698Z,146.25
2023-05-05T07:33:41.327Z,146.25
2023-05-05T07:34:41.450Z,151.88
2023-05-05T07:35:41.302Z,163.12
2023-05-05T07:36:41.290Z,157.50
2023-05-05T07:37:41.286Z,146.25
2023-05-05T07:38:41.266Z,140.62
2023-05-05T07:39:41.414Z,140.62
2023-05-05T07:40:41.250Z,140.62
2023-05-05T07:41:41.249Z,146.25
2023-05-05T07:42:41.213Z,140.62
2023-05-05T07:43:42.359Z,146.25
2023-05-05T07:44:41.194Z,157.50
2023-05-05T07:45:41.254Z,168.75
2023-05-05T07:46:41.187Z,174.38
2023-05-05T07:47:41.222Z,168.75
2023-05-05T07:48:41.509Z,168.75
2023-05-05T07:49:41.136Z,157.50
2023-05-05T07:50:41.138Z,140.62
2023-05-05T07:51:41.144Z,129.38
2023-05-05T07:52:46.668Z,129.38
2023-05-05T07:53:42.120Z,123.75
2023-05-05T07:54:41.092Z,118.12
2023-05-05T07:55:41.081Z,106.88
2023-05-05T07:56:41.080Z,101.25
2023-05-05T07:57:41.117Z,101.25
2023-05-05T07:58:41.057Z,101.25
2023-05-05T07:59:41.069Z,106.88
2023-05-05T08:00:41.025Z,106.88
2023-05-05T08:01:41.020Z,106.88
2023-05-05T08:02:41.068Z,106.88
2023-05-05T08:03:41.079Z,106.88
2023-05-05T08:04:41.042Z,106.88
2023-05-05T08:05:40.966Z,101.25
2023-05-05T08:06:40.964Z,90.00
2023-05-05T08:07:41.315Z,78.75
2023-05-05T08:08:40.955Z,78.75
2023-05-05T08:09:40.941Z,73.12
2023-05-05T08:10:40.926Z,73.12
2023-05-05T08:11:40.978Z,78.75
2023-05-05T08:12:40.935Z,84.38
2023-05-05T08:13:40.903Z,90.00
2023-05-05T08:14:40.876Z,95.62
2023-05-05T08:15:40.915Z,95.62
2023-05-05T08:16:40.879Z,101.25
2023-05-05T08:17:40.862Z,101.25
2023-05-05T08:18:40.840Z,106.88
2023-05-05T08:19:40.833Z,106.88
2023-05-05T08:20:40.842Z,112.50
2023-05-05T08:21:40.849Z,118.12
2023-05-05T08:22:40.790Z,123.75
2023-05-05T08:23:40.779Z,123.75
2023-05-05T08:24:40.789Z,118.12
2023-05-05T08:25:40.756Z,123.75
2023-05-05T08:26:40.747Z,123.75
2023-05-05T08:27:40.757Z,123.75
2023-05-05T08:28:40.732Z,118.12
2023-05-05T08:29:40.726Z,118.12
2023-05-05T08:30:40.735Z,118.12
2023-05-05T08:31:40.742Z,118.12
2023-05-05T08:32:40.744Z,118.12
2023-05-05T08:33:40.687Z,118.12
2023-05-05T08:34:40.654Z,118.12
2023-05-05T08:35:40.681Z,118.12
2023-05-05T08:36:40.656Z,118.12
2023-05-05T08:37:40.644Z,118.12
2023-05-05T08:38:40.625Z,123.75
2023-05-05T08:39:40.619Z,135.00
2023-05-05T08:40:40.626Z,135.00
2023-05-05T08:41:40.608Z,135.00
2023-05-05T08:42:40.586Z,140.62
2023-05-05T08:43:40.580Z,151.88
2023-05-05T08:44:40.564Z,157.50
2023-05-05T08:45:40.557Z,174.38
2023-05-05T08:46:40.564Z,191.25
2023-05-05T08:47:40.590Z,213.75
2023-05-05T08:48:40.520Z,236.25
2023-05-05T08:49:40.515Z,258.75
2023-05-05T08:50:40.506Z,275.62
2023-05-05T08:51:40.490Z,303.75
2023-05-05T08:52:40.571Z,309.38
2023-05-05T08:53:40.468Z,303.75
2023-05-05T08:54:40.450Z,292.50
2023-05-05T08:55:40.431Z,281.25
2023-05-05T08:56:40.427Z,258.75
2023-05-05T08:57:40.424Z,247.50
2023-05-05T08:58:40.419Z,236.25
2023-05-05T08:59:40.429Z,236.25
2023-05-05T09:00:40.416Z,230.62
2023-05-05T09:01:40.385Z,230.62
2023-05-05T09:02:40.481Z,236.25
2023-05-05T09:03:40.360Z,247.50
2023-05-05T09:04:40.346Z,253.12
2023-05-05T09:05:40.339Z,258.75
2023-05-05T09:06:40.326Z,264.38
2023-05-05T09:07:40.301Z,275.62
2023-05-05T09:08:40.319Z,286.88
2023-05-05T09:09:40.286Z,286.88
2023-05-05T09:10:40.289Z,281.25
2023-05-05T09:11:40.281Z,270.00
2023-05-05T09:12:40.421Z,264.38
2023-05-05T09:13:40.246Z,253.12
2023-05-05T09:14:40.240Z,253.12
2023-05-05T09:15:40.236Z,264.38
2023-05-05T09:16:40.286Z,281.25
2023-05-05T09:17:40.243Z,298.12
2023-05-05T09:18:40.205Z,315.00
2023-05-05T09:19:40.194Z,315.00
2023-05-05T09:20:40.172Z,303.75
2023-05-05T09:21:40.159Z,303.75
2023-05-05T09:22:40.157Z,298.12
2023-05-05T09:23:40.158Z,292.50
2023-05-05T09:24:40.122Z,275.62
2023-05-05T09:25:40.130Z,258.75
2023-05-05T09:26:40.149Z,253.12
2023-05-05T09:27:40.087Z,247.50
2023-05-05T09:28:40.068Z,241.88
2023-05-05T09:29:40.072Z,241.88
2023-05-05T09:30:40.085Z,247.50
2023-05-05T09:31:40.067Z,258.75
2023-05-05T09:32:40.127Z,270.00
2023-05-05T09:33:40.039Z,275.62
2023-05-05T09:34:40.029Z,275.62
2023-05-05T09:35:40.025Z,286.88
2023-05-05T09:36:40.054Z,292.50
2023-05-05T09:37:39.986Z,286.88
2023-05-05T09:38:39.994Z,281.25
2023-05-05T09:39:39.996Z,281.25
2023-05-05T09:40:39.951Z,292.50
2023-05-05T09:41:39.968Z,309.38
2023-05-05T09:42:39.979Z,337.50
2023-05-05T09:43:39.915Z,371.25
2023-05-05T09:44:39.924Z,410.62
2023-05-05T09:45:39.897Z,433.12
2023-05-05T09:46:39.916Z,421.88
2023-05-05T09:47:39.916Z,410.62
2023-05-05T09:48:39.902Z,410.62
2023-05-05T09:49:39.876Z,416.25
2023-05-05T09:50:39.830Z,450.00
2023-05-05T09:51:39.829Z,483.75
2023-05-05T09:52:39.811Z,495.00
2023-05-05T09:53:39.821Z,523.12
2023-05-05T09:54:39.800Z,545.62
2023-05-05T09:55:39.810Z,562.50
2023-05-05T09:56:39.785Z,568.12
2023-05-05T09:57:39.766Z,568.12
2023-05-05T09:58:39.785Z,562.50
2023-05-05T09:59:39.747Z,534.38
2023-05-05T10:00:39.794Z,500.62
2023-05-05T10:01:39.790Z,472.50
2023-05-05T10:02:39.748Z,433.12
2023-05-05T10:03:39.705Z,399.38
2023-05-05T10:04:39.712Z,393.75
2023-05-05T10:05:39.678Z,388.12
2023-05-05T10:06:39.712Z,371.25
2023-05-05T10:07:39.651Z,343.12
2023-05-05T10:08:39.663Z,309.38
2023-05-05T10:09:39.641Z,286.88
2023-05-05T10:10:39.622Z,264.38
2023-05-05T10:11:39.625Z,247.50
2023-05-05T10:12:39.627Z,230.62
2023-05-05T10:13:39.601Z,213.75
2023-05-05T10:14:39.591Z,202.50
2023-05-05T10:15:39.593Z,196.88
2023-05-05T10:16:39.623Z,196.88
2023-05-05T10:17:39.547Z,185.62
2023-05-05T10:18:39.596Z,185.62
2023-05-05T10:19:39.542Z,174.38
2023-05-05T10:20:39.514Z,174.38
2023-05-05T10:21:41.465Z,174.38
2023-05-05T10:22:39.483Z,180.00
2023-05-05T10:23:39.467Z,180.00
2023-05-05T10:24:39.483Z,180.00
2023-05-05T10:25:39.522Z,180.00
2023-05-05T10:26:39.467Z,191.25
2023-05-05T10:27:39.438Z,202.50
2023-05-05T10:28:39.474Z,219.38
2023-05-05T10:29:39.416Z,247.50
2023-05-05T10:30:39.417Z,281.25
2023-05-05T10:31:39.429Z,303.75
2023-05-05T10:33:39.472Z,303.75
2023-05-05T10:34:39.460Z,292.50
2023-05-05T10:35:39.363Z,270.00
2023-05-05T10:36:39.357Z,241.88
2023-05-05T10:37:39.355Z,230.62
2023-05-05T10:38:39.322Z,225.00
2023-05-05T10:39:39.321Z,219.38
2023-05-05T10:40:39.324Z,219.38
2023-05-05T10:41:39.298Z,219.38
2023-05-05T10:42:39.296Z,202.50
2023-05-05T10:43:39.289Z,180.00
2023-05-05T10:44:39.265Z,163.12
2023-05-05T10:45:39.375Z,151.88
2023-05-05T10:46:39.333Z,146.25
2023-05-05T10:47:39.235Z,146.25
2023-05-05T10:48:39.279Z,140.62
2023-05-05T10:49:39.195Z,140.62
2023-05-05T10:50:39.201Z,140.62
2023-05-05T10:51:40.673Z,140.62
2023-05-05T10:52:39.186Z,140.62
2023-05-05T10:53:39.276Z,146.25
2023-05-05T10:54:39.149Z,151.88
2023-05-05T10:55:39.132Z,157.50
2023-05-05T10:56:39.141Z,163.12
2023-05-05T10:57:39.127Z,163.12
2023-05-05T10:58:55.370Z,163.12
2023-05-05T10:59:40.117Z,163.12
2023-05-05T11:00:39.120Z,168.75
2023-05-05T11:01:39.109Z,180.00
2023-05-05T11:02:39.111Z,196.88
2023-05-05T11:03:39.069Z,202.50
2023-05-05T11:04:39.050Z,208.12
2023-05-05T11:05:39.034Z,213.75
2023-05-05T11:06:39.033Z,230.62
2023-05-05T11:07:39.032Z,270.00
2023-05-05T11:08:39.018Z,315.00
2023-05-05T11:09:39.014Z,371.25
2023-05-05T11:10:39.004Z,399.38
2023-05-05T11:11:38.972Z,410.62
2023-05-05T11:12:39.129Z,399.38
2023-05-05T11:13:38.957Z,393.75
2023-05-05T11:14:38.939Z,388.12
2023-05-05T11:15:38.930Z,388.12
2023-05-05T11:16:38.968Z,421.88
2023-05-05T11:17:38.942Z,472.50
2023-05-05T11:18:39.855Z,511.88
2023-05-05T11:19:38.880Z,506.25
2023-05-05T11:20:38.873Z,489.38
2023-05-05T11:21:38.869Z,466.88
2023-05-05T11:22:38.846Z,450.00
2023-05-05T11:23:38.843Z,421.88
2023-05-05T11:24:38.832Z,399.38
2023-05-05T11:25:38.847Z,388.12
2023-05-05T11:26:38.821Z,399.38
2023-05-05T11:27:38.821Z,421.88
2023-05-05T11:28:38.820Z,461.25
2023-05-05T11:29:38.773Z,506.25
2023-05-05T11:30:38.775Z,511.88
2023-05-05T11:31:38.764Z,517.50
2023-05-05T11:32:38.813Z,534.38
2023-05-05T11:33:38.731Z,540.00
2023-05-05T11:34:38.727Z,551.25
2023-05-05T11:35:38.709Z,590.62
2023-05-05T11:36:38.704Z,635.62
2023-05-05T11:37:38.689Z,691.88
2023-05-05T11:38:38.821Z,725.62
2023-05-05T11:39:38.660Z,742.50
2023-05-05T11:40:38.651Z,753.75
2023-05-05T11:41:38.684Z,720.00
2023-05-05T11:42:38.652Z,697.50
2023-05-05T11:43:38.629Z,686.25
2023-05-05T11:44:38.632Z,691.88
2023-05-05T11:45:38.604Z,675.00
2023-05-05T11:46:38.670Z,652.50
2023-05-05T11:47:38.603Z,652.50
2023-05-05T11:48:38.576Z,675.00
2023-05-05T11:49:38.617Z,691.88
2023-05-05T11:50:38.549Z,703.12
2023-05-05T11:51:38.551Z,686.25
2023-05-05T11:52:38.556Z,686.25
2023-05-05T11:53:38.553Z,680.62
2023-05-05T11:54:38.519Z,680.62
2023-05-05T11:55:38.495Z,686.25
2023-05-05T11:56:38.478Z,691.88
2023-05-05T11:57:38.466Z,703.12
2023-05-05T11:58:38.451Z,708.75
2023-05-05T11:59:38.447Z,708.75
2023-05-05T12:00:38.486Z,725.62
2023-05-05T12:01:38.434Z,725.62
2023-05-05T12:02:38.517Z,731.25
2023-05-05T12:03:38.665Z,736.88
2023-05-05T12:04:38.461Z,781.88
2023-05-05T12:05:38.393Z,759.38
2023-05-05T12:06:38.390Z,753.75
2023-05-05T12:07:38.363Z,770.62
2023-05-05T12:08:38.343Z,776.25
2023-05-05T12:09:38.331Z,748.12
2023-05-05T12:10:38.321Z,776.25
2023-05-05T12:11:38.321Z,810.00
2023-05-05T12:12:38.426Z,826.88
2023-05-05T12:13:38.290Z,821.25
2023-05-05T12:14:38.325Z,804.38
2023-05-05T12:15:38.270Z,765.00
2023-05-05T12:16:38.331Z,770.62
2023-05-05T12:17:38.280Z,759.38
2023-05-05T12:18:38.249Z,720.00
2023-05-05T12:19:38.236Z,669.38
2023-05-05T12:20:38.235Z,663.75
2023-05-05T12:21:38.223Z,607.50
2023-05-05T12:22:38.236Z,579.38
2023-05-05T12:23:38.197Z,556.88
2023-05-05T12:24:38.198Z,556.88
2023-05-05T12:25:38.384Z,579.38
2023-05-05T12:26:38.162Z,646.88
2023-05-05T12:27:38.161Z,658.12
2023-05-05T12:28:38.135Z,652.50
2023-05-05T12:29:38.127Z,618.75
2023-05-05T12:30:38.189Z,551.25
2023-05-05T12:31:38.117Z,506.25
2023-05-05T12:32:38.112Z,506.25
2023-05-05T12:33:38.081Z,517.50
2023-05-05T12:34:38.091Z,534.38
2023-05-05T12:35:38.107Z,573.75
2023-05-05T12:36:38.081Z,590.62
2023-05-05T12:37:38.055Z,618.75
2023-05-05T12:38:38.033Z,675.00
2023-05-05T12:39:38.048Z,630.00
2023-05-05T12:40:38.021Z,556.88
2023-05-05T12:41:38.012Z,545.62
2023-05-05T12:42:37.998Z,573.75
2023-05-05T12:43:37.979Z,596.25
2023-05-05T12:44:37.985Z,630.00
2023-05-05T12:45:38.026Z,877.50
2023-05-05T12:46:38.027Z,725.62
2023-05-05T12:47:37.990Z,765.00
2023-05-05T12:48:37.984Z,708.75